Oski — WYD3004 — position and weather

sailwx.info

Track history (hours):
 
Tides and Currents Weather Stations Pressure Air Temp Water Temp Dewpoint Dewpoint Depression Visibility Wind Speed Wind Dir Waves Ship Positions

Oski

Owner: BLUE & GOLD FLEET, SAN FRANCISCO, CA. More information available from US FCC via Universal Licensing System and Coast Guard Vessel Documentation Center.

Last reported at 2015-Jan-31 01:27 UTC. Time now 2015-Jan-31 08:42 UTC.
Position N 37°49' W 122°25'.

Length 24 m; draft 2 m.

Type: Passenger vessel. MMSI: 366985320.

Date/timePositionNaut miles runAvg speedWind from/ knotsBaromVisibWave heightAir tempDewpointWater temp
2015-Jan-31 01:27N 37°49' W 122°25'0 0.1
2015-Jan-31 00:33N 37°49' W 122°25'2 2.4
2015-Jan-30 23:33N 37°49' W 122°28'3 2.5
2015-Jan-30 22:33N 37°49' W 122°25'3 3.2
2015-Jan-30 21:33N 37°49' W 122°29'3 2.9
2015-Jan-30 20:33N 37°50' W 122°25'1 1.1
2015-Jan-30 19:33N 37°49' W 122°25'3 2.9
2015-Jan-30 18:33N 37°49' W 122°28'3 0.1
2015-Jan-28 19:33N 37°49' W 122°25'0 0.0
2015-Jan-28 18:34N 37°49' W 122°25'0 0.0
2015-Jan-28 17:33N 37°49' W 122°25'0 0.0
2015-Jan-28 16:33N 37°49' W 122°25'0 0.0
2015-Jan-27 01:25N 37°49' W 122°25'0 0.1
2015-Jan-27 00:33N 37°49' W 122°25'2 2.2
2015-Jan-26 23:34N 37°49' W 122°27'2 2.2
2015-Jan-26 22:33N 37°49' W 122°25'2 2.2
2015-Jan-26 21:33N 37°49' W 122°27'2 2.0
2015-Jan-26 20:33N 37°50' W 122°25'1 1.0
2015-Jan-26 19:33N 37°49' W 122°25'2 2.3
2015-Jan-26 18:33N 37°49' W 122°28'2 0.1
2015-Jan-26 01:24N 37°49' W 122°25'0 0.3
2015-Jan-26 00:33N 37°49' W 122°25'3 2.7
2015-Jan-25 23:33N 37°49' W 122°28'3 2.8
2015-Jan-25 22:33N 37°49' W 122°25'3 2.6
2015-Jan-25 21:33N 37°49' W 122°28'4 3.7
2015-Jan-25 20:33N 37°48' W 122°23'1 1.3
2015-Jan-25 19:33N 37°49' W 122°25'2 2.4
2015-Jan-25 18:33N 37°49' W 122°28'3 0.1
2015-Jan-25 01:29N 37°49' W 122°25'0 0.1
2015-Jan-25 00:33N 37°49' W 122°25'3 2.8
2015-Jan-24 23:33N 37°49' W 122°28'3 2.9
2015-Jan-24 22:33N 37°49' W 122°25'2 2.0
2015-Jan-24 21:33N 37°49' W 122°27'3 2.9
2015-Jan-24 20:33N 37°49' W 122°23'1 0.9
2015-Jan-24 19:33N 37°49' W 122°25'2 2.1
2015-Jan-24 18:33N 37°49' W 122°27'2 2.1
2015-Jan-24 17:33N 37°49' W 122°25'0 0.0
2015-Jan-24 01:28N 37°49' W 122°25'0 0.0
2015-Jan-24 00:33N 37°49' W 122°25'3 3.3
2015-Jan-23 23:33N 37°49' W 122°29'3 3.3
2015-Jan-23 22:33N 37°49' W 122°25'3 2.7
2015-Jan-23 21:33N 37°49' W 122°28'4 3.8
2015-Jan-23 20:33N 37°48' W 122°23'1 1.1
2015-Jan-23 19:33N 37°49' W 122°25'2 2.2
2015-Jan-23 18:33N 37°49' W 122°27'2 0.1
2015-Jan-23 01:26N 37°49' W 122°25'0 0.2
2015-Jan-23 00:34N 37°49' W 122°25'3 2.7
2015-Jan-22 23:33N 37°49' W 122°28'3 2.8
2015-Jan-22 22:33N 37°49' W 122°25'3 2.8
2015-Jan-22 21:33N 37°49' W 122°28'4 3.9
2015-Jan-22 20:33N 37°48' W 122°23'1 1.2
2015-Jan-22 19:34N 37°49' W 122°25'2 2.3
2015-Jan-22 18:33N 37°49' W 122°28'2 2.3
2015-Jan-22 17:33N 37°49' W 122°25'0 0.0
2015-Jan-21 23:34N 37°49' W 122°25'0 0.0
2015-Jan-21 22:50N 37°49' W 122°25'0 0.0
2015-Jan-21 22:46N 37°49' W 122°25'0 0.0
2015-Jan-21 22:33N 37°49' W 122°25'  
Track history (hours):
 
Tides and Currents Weather Stations Pressure Air Temp Water Temp Dewpoint Dewpoint Depression Visibility Wind Speed Wind Dir Waves Ship Positions

Oski

Owner: BLUE & GOLD FLEET, SAN FRANCISCO, CA. More information available from US FCC via Universal Licensing System and Coast Guard Vessel Documentation Center.

Last reported at 2015-Jan-31 01:27 UTC. Time now 2015-Jan-31 08:42 UTC.
Position N 37°49' W 122°25'.

Length 24 m; draft 2 m.

Type: Passenger vessel. MMSI: 366985320.

Date/timePositionNaut miles runAvg speedWind from/ knotsBaromVisibWave heightAir tempDewpointWater temp
2015-Jan-31 01:27N 37°49' W 122°25'0 0.1
2015-Jan-31 00:33N 37°49' W 122°25'2 2.4
2015-Jan-30 23:33N 37°49' W 122°28'3 2.5
2015-Jan-30 22:33N 37°49' W 122°25'3 3.2
2015-Jan-30 21:33N 37°49' W 122°29'3 2.9
2015-Jan-30 20:33N 37°50' W 122°25'1 1.1
2015-Jan-30 19:33N 37°49' W 122°25'3 2.9
2015-Jan-30 18:33N 37°49' W 122°28'3 0.1
2015-Jan-28 19:33N 37°49' W 122°25'0 0.0
2015-Jan-28 18:34N 37°49' W 122°25'0 0.0
2015-Jan-28 17:33N 37°49' W 122°25'0 0.0
2015-Jan-28 16:33N 37°49' W 122°25'0 0.0
2015-Jan-27 01:25N 37°49' W 122°25'0 0.1
2015-Jan-27 00:33N 37°49' W 122°25'2 2.2
2015-Jan-26 23:34N 37°49' W 122°27'2 2.2
2015-Jan-26 22:33N 37°49' W 122°25'2 2.2
2015-Jan-26 21:33N 37°49' W 122°27'2 2.0
2015-Jan-26 20:33N 37°50' W 122°25'1 1.0
2015-Jan-26 19:33N 37°49' W 122°25'2 2.3
2015-Jan-26 18:33N 37°49' W 122°28'2 0.1
2015-Jan-26 01:24N 37°49' W 122°25'0 0.3
2015-Jan-26 00:33N 37°49' W 122°25'3 2.7
2015-Jan-25 23:33N 37°49' W 122°28'3 2.8
2015-Jan-25 22:33N 37°49' W 122°25'3 2.6
2015-Jan-25 21:33N 37°49' W 122°28'4 3.7
2015-Jan-25 20:33N 37°48' W 122°23'1 1.3
2015-Jan-25 19:33N 37°49' W 122°25'2 2.4
2015-Jan-25 18:33N 37°49' W 122°28'3 0.1
2015-Jan-25 01:29N 37°49' W 122°25'0 0.1
2015-Jan-25 00:33N 37°49' W 122°25'3 2.8
2015-Jan-24 23:33N 37°49' W 122°28'3 2.9
2015-Jan-24 22:33N 37°49' W 122°25'2 2.0
2015-Jan-24 21:33N 37°49' W 122°27'3 2.9
2015-Jan-24 20:33N 37°49' W 122°23'1 0.9
2015-Jan-24 19:33N 37°49' W 122°25'2 2.1
2015-Jan-24 18:33N 37°49' W 122°27'2 2.1
2015-Jan-24 17:33N 37°49' W 122°25'0 0.0
2015-Jan-24 01:28N 37°49' W 122°25'0 0.0
2015-Jan-24 00:33N 37°49' W 122°25'3 3.3
2015-Jan-23 23:33N 37°49' W 122°29'3 3.3
2015-Jan-23 22:33N 37°49' W 122°25'3 2.7
2015-Jan-23 21:33N 37°49' W 122°28'4 3.8
2015-Jan-23 20:33N 37°48' W 122°23'1 1.1
2015-Jan-23 19:33N 37°49' W 122°25'2 2.2
2015-Jan-23 18:33N 37°49' W 122°27'2 0.1
2015-Jan-23 01:26N 37°49' W 122°25'0 0.2
2015-Jan-23 00:34N 37°49' W 122°25'3 2.7
2015-Jan-22 23:33N 37°49' W 122°28'3 2.8
2015-Jan-22 22:33N 37°49' W 122°25'3 2.8
2015-Jan-22 21:33N 37°49' W 122°28'4 3.9
2015-Jan-22 20:33N 37°48' W 122°23'1 1.2
2015-Jan-22 19:34N 37°49' W 122°25'2 2.3
2015-Jan-22 18:33N 37°49' W 122°28'2 2.3
2015-Jan-22 17:33N 37°49' W 122°25'0 0.0
2015-Jan-21 23:34N 37°49' W 122°25'0 0.0
2015-Jan-21 22:50N 37°49' W 122°25'0 0.0
2015-Jan-21 22:46N 37°49' W 122°25'0 0.0
2015-Jan-21 22:33N 37°49' W 122°25'  

Dump ship's entire track history